createdAt,value
2019-05-23T00:01:52.027Z,99.90
2019-05-23T00:04:26.656Z,99.90
2019-05-23T00:06:54.305Z,99.90
2019-05-23T00:09:22.292Z,99.90
2019-05-23T00:11:59.882Z,99.90
2019-05-23T00:14:36.751Z,99.90
2019-05-23T00:17:04.613Z,99.90
2019-05-23T00:19:33.232Z,99.90
2019-05-23T00:22:00.896Z,99.90
2019-05-23T00:24:30.032Z,99.90
2019-05-23T00:26:58.915Z,99.90
2019-05-23T00:29:26.820Z,99.90
2019-05-23T00:32:02.578Z,99.90
2019-05-23T00:34:31.111Z,99.90
2019-05-23T00:36:58.732Z,99.90
2019-05-23T00:39:26.675Z,99.90
2019-05-23T00:41:55.816Z,99.90
2019-05-23T00:44:23.949Z,99.90
2019-05-23T00:46:52.069Z,99.90
2019-05-23T00:49:19.420Z,99.90
2019-05-23T00:51:46.659Z,99.90
2019-05-23T00:54:15.310Z,99.90
2019-05-23T00:56:42.620Z,99.90
2019-05-23T00:59:24.433Z,99.90
2019-05-23T01:01:40.907Z,99.90
2019-05-23T01:04:10.429Z,99.90
2019-05-23T01:06:37.804Z,99.90
2019-05-23T01:09:06.450Z,99.90
2019-05-23T01:11:34.171Z,99.90
2019-05-23T01:14:01.598Z,99.90
2019-05-23T01:16:29.250Z,99.90
2019-05-23T01:18:56.668Z,99.90
2019-05-23T01:21:52.472Z,99.90
2019-05-23T01:24:23.284Z,99.90
2019-05-23T01:26:51.802Z,99.90
2019-05-23T01:29:21.655Z,99.90
2019-05-23T01:31:52.983Z,99.90
2019-05-23T01:34:21.433Z,99.90
2019-05-23T01:36:49.060Z,99.90
2019-05-23T01:39:19.351Z,99.90
2019-05-23T01:41:47.004Z,99.90
2019-05-23T01:44:15.341Z,99.90
2019-05-23T01:46:43.351Z,99.90
2019-05-23T01:49:13.041Z,99.90
2019-05-23T01:51:40.941Z,99.90
2019-05-23T01:54:08.965Z,99.90
2019-05-23T01:56:36.721Z,99.90
2019-05-23T01:59:04.341Z,99.90
2019-05-23T02:01:31.973Z,99.90
2019-05-23T02:03:59.227Z,99.90
2019-05-23T02:06:26.497Z,99.90
2019-05-23T02:08:54.818Z,99.90
2019-05-23T02:11:23.539Z,99.90
2019-05-23T02:13:51.393Z,99.90
2019-05-23T02:16:20.263Z,99.90
2019-05-23T02:18:48.916Z,99.90
2019-05-23T02:21:17.073Z,99.90
2019-05-23T02:23:45.111Z,99.90
2019-05-23T02:26:12.501Z,99.90
2019-05-23T02:28:40.828Z,99.90
2019-05-23T02:31:09.392Z,99.90
2019-05-23T02:33:36.816Z,99.90
2019-05-23T02:36:04.068Z,99.90
2019-05-23T02:38:53.429Z,99.90
2019-05-23T02:41:35.181Z,99.90
2019-05-23T02:44:10.866Z,99.90
2019-05-23T02:46:56.517Z,99.90
2019-05-23T02:49:26.936Z,99.90
2019-05-23T02:51:55.999Z,99.90
2019-05-23T02:54:26.417Z,99.90
2019-05-23T02:56:55.989Z,99.90
2019-05-23T02:59:37.193Z,99.90
2019-05-23T03:02:53.878Z,99.90
2019-05-23T03:05:24.815Z,99.90
2019-05-23T03:07:53.226Z,99.90
2019-05-23T03:10:23.332Z,99.90
2019-05-23T03:12:52.224Z,99.90
2019-05-23T03:15:21.066Z,99.90
2019-05-23T03:17:51.891Z,99.90
2019-05-23T03:20:20.972Z,99.90
2019-05-23T03:22:58.112Z,99.90
2019-05-23T03:26:04.527Z,99.90
2019-05-23T03:28:39.556Z,99.90
2019-05-23T03:31:28.712Z,99.90
2019-05-23T03:33:42.046Z,99.90
2019-05-23T03:36:09.412Z,99.90
2019-05-23T03:38:37.248Z,99.90
2019-05-23T03:41:04.742Z,99.90
2019-05-23T03:43:31.974Z,99.90
2019-05-23T03:46:04.372Z,99.90
2019-05-23T03:48:33.088Z,99.90
2019-05-23T03:51:02.207Z,99.90
2019-05-23T03:53:31.200Z,99.90
2019-05-23T03:55:58.809Z,99.90
2019-05-23T03:58:26.885Z,99.90
2019-05-23T04:00:56.308Z,99.90
2019-05-23T04:03:24.515Z,99.90
2019-05-23T04:05:52.290Z,99.90
2019-05-23T04:08:20.151Z,99.90
2019-05-23T04:10:51.365Z,99.90
2019-05-23T04:13:16.859Z,99.90
2019-05-23T04:15:44.219Z,99.90
2019-05-23T04:18:11.493Z,99.90
2019-05-23T04:20:38.850Z,99.90
2019-05-23T04:23:06.859Z,99.90
2019-05-23T04:25:34.727Z,99.90
2019-05-23T04:28:02.174Z,99.90
2019-05-23T04:30:29.507Z,99.90
2019-05-23T04:32:56.818Z,99.90
2019-05-23T04:35:25.206Z,99.90
2019-05-23T04:37:52.866Z,99.90
2019-05-23T04:40:20.241Z,99.90
2019-05-23T04:42:47.882Z,99.90
2019-05-23T04:45:16.031Z,99.90
2019-05-23T04:47:43.368Z,99.90
2019-05-23T04:50:13.119Z,99.90
2019-05-23T04:52:40.923Z,99.90
2019-05-23T04:55:09.964Z,99.90
2019-05-23T04:57:37.912Z,99.90
2019-05-23T05:00:05.868Z,99.90
2019-05-23T05:02:33.842Z,99.90
2019-05-23T05:05:01.315Z,99.90
2019-05-23T05:07:29.050Z,99.90
2019-05-23T05:09:56.311Z,99.90
2019-05-23T05:12:23.571Z,99.90
2019-05-23T05:14:51.121Z,99.90
2019-05-23T05:17:18.814Z,99.90
2019-05-23T05:19:46.211Z,99.90
2019-05-23T05:22:14.038Z,99.90
2019-05-23T05:24:41.367Z,99.90
2019-05-23T05:27:08.686Z,99.90
2019-05-23T05:29:35.951Z,99.90
2019-05-23T05:32:05.375Z,99.90
2019-05-23T05:34:32.781Z,99.90
2019-05-23T05:37:00.692Z,99.90
2019-05-23T05:39:28.063Z,99.90
2019-05-23T05:41:55.384Z,99.90
2019-05-23T05:44:22.932Z,99.90
2019-05-23T05:46:50.869Z,99.90
2019-05-23T05:49:18.308Z,99.90
2019-05-23T05:51:45.881Z,99.90
2019-05-23T05:54:13.612Z,99.90
2019-05-23T05:56:40.933Z,99.90
2019-05-23T05:59:08.224Z,99.90
2019-05-23T06:01:36.045Z,99.90
2019-05-23T06:04:04.023Z,99.90
2019-05-23T06:06:38.901Z,99.90
2019-05-23T06:09:13.451Z,99.90
2019-05-23T06:11:40.836Z,99.90
2019-05-23T06:14:08.860Z,99.90
2019-05-23T06:16:39.392Z,99.90
2019-05-23T06:19:07.431Z,99.90
2019-05-23T06:21:34.783Z,99.90
2019-05-23T06:24:02.899Z,99.90
2019-05-23T06:26:30.791Z,99.90
2019-05-23T06:28:58.143Z,99.90
2019-05-23T06:31:25.691Z,99.90
2019-05-23T06:33:53.035Z,99.90
2019-05-23T06:36:20.458Z,99.90
2019-05-23T06:38:47.778Z,99.90
2019-05-23T06:41:16.069Z,99.90
2019-05-23T06:43:43.618Z,99.90
2019-05-23T06:46:11.184Z,99.90
2019-05-23T06:48:38.449Z,99.90
2019-05-23T06:51:05.728Z,99.90
2019-05-23T06:53:33.084Z,99.90
2019-05-23T06:56:00.375Z,99.90
2019-05-23T06:58:28.121Z,99.90
2019-05-23T07:00:55.495Z,99.90
2019-05-23T07:03:39.846Z,99.90
2019-05-23T07:05:52.505Z,99.90
2019-05-23T07:08:25.317Z,99.90
2019-05-23T07:10:51.701Z,99.90
2019-05-23T07:13:20.049Z,99.90
2019-05-23T07:15:47.288Z,99.90
2019-05-23T07:18:15.302Z,99.90
2019-05-23T07:20:42.736Z,99.90
2019-05-23T07:23:12.044Z,99.90
2019-05-23T07:25:39.387Z,99.90
2019-05-23T07:28:07.210Z,99.90
2019-05-23T07:30:34.452Z,99.90
2019-05-23T07:33:02.175Z,99.90
2019-05-23T07:35:29.419Z,99.90
2019-05-23T07:37:56.819Z,99.90
2019-05-23T07:40:25.356Z,99.90
2019-05-23T07:42:53.218Z,99.90
2019-05-23T07:45:24.879Z,99.90
2019-05-23T07:47:52.465Z,99.90
2019-05-23T07:50:19.841Z,99.90
2019-05-23T07:52:47.465Z,99.90
2019-05-23T07:55:21.720Z,99.90
2019-05-23T07:57:49.404Z,99.90
2019-05-23T08:00:21.432Z,99.90
2019-05-23T08:02:50.744Z,99.90
2019-05-23T08:05:18.227Z,99.90
2019-05-23T08:07:46.846Z,99.90
2019-05-23T08:10:14.387Z,99.90
2019-05-23T08:12:42.123Z,99.90
2019-05-23T08:15:10.583Z,99.90
2019-05-23T08:17:37.812Z,99.90
2019-05-23T08:20:05.336Z,99.90
2019-05-23T08:22:32.743Z,99.90
2019-05-23T08:25:00.176Z,99.90
2019-05-23T08:27:27.535Z,99.90
2019-05-23T08:29:56.305Z,99.90
2019-05-23T08:32:23.773Z,99.90
2019-05-23T08:34:51.125Z,99.90
2019-05-23T08:37:18.963Z,99.90
2019-05-23T08:39:46.436Z,99.90
2019-05-23T08:42:14.596Z,99.90
2019-05-23T08:44:42.696Z,99.90
2019-05-23T08:47:11.352Z,99.90
2019-05-23T08:49:38.650Z,99.90
2019-05-23T08:52:05.984Z,99.90
2019-05-23T08:54:33.466Z,99.90
2019-05-23T08:57:01.227Z,99.90
2019-05-23T08:59:29.099Z,99.90
2019-05-23T09:01:56.379Z,99.90
2019-05-23T09:04:23.810Z,99.90
2019-05-23T09:06:51.525Z,99.90
2019-05-23T09:09:28.952Z,99.90
2019-05-23T09:11:48.647Z,99.90
2019-05-23T09:14:16.152Z,99.90
2019-05-23T09:16:43.607Z,99.90
2019-05-23T09:19:10.846Z,99.90
2019-05-23T09:21:38.307Z,99.90
2019-05-23T09:24:05.942Z,99.90
2019-05-23T09:26:33.796Z,99.90
2019-05-23T09:29:02.888Z,99.90
2019-05-23T09:31:30.284Z,99.90
2019-05-23T09:33:57.664Z,99.90
2019-05-23T09:36:25.357Z,99.90
2019-05-23T09:38:52.767Z,99.90
2019-05-23T09:41:19.993Z,99.90
2019-05-23T09:43:47.240Z,99.90
2019-05-23T09:46:14.503Z,99.90
2019-05-23T09:48:41.930Z,99.90
2019-05-23T09:51:09.273Z,99.90
2019-05-23T09:53:36.578Z,99.90
2019-05-23T09:56:04.159Z,99.90
2019-05-23T09:58:31.493Z,99.90
2019-05-23T10:00:58.705Z,99.90
2019-05-23T10:03:26.345Z,99.90
2019-05-23T10:05:53.764Z,99.90
2019-05-23T10:08:21.025Z,99.90
2019-05-23T10:10:48.718Z,99.90
2019-05-23T10:13:16.013Z,99.90
2019-05-23T10:16:03.359Z,99.90
2019-05-23T10:18:31.207Z,99.90
2019-05-23T10:20:58.885Z,99.90
2019-05-23T10:23:26.352Z,99.90
2019-05-23T10:25:55.565Z,99.90
2019-05-23T10:28:22.890Z,99.90
2019-05-23T10:30:50.179Z,99.90
2019-05-23T10:33:17.715Z,99.90
2019-05-23T10:35:58.975Z,99.90
2019-05-23T10:38:14.661Z,99.90
2019-05-23T10:40:42.294Z,99.90
2019-05-23T10:43:10.491Z,99.90
2019-05-23T10:45:37.816Z,99.90
2019-05-23T10:48:06.311Z,99.90
2019-05-23T10:50:44.375Z,99.90
2019-05-23T10:53:03.393Z,99.90
2019-05-23T10:55:30.858Z,99.90
2019-05-23T10:57:58.286Z,99.90
2019-05-23T11:00:27.305Z,99.90
2019-05-23T11:02:54.692Z,99.90
2019-05-23T11:05:22.285Z,99.90
2019-05-23T11:07:49.738Z,99.90
2019-05-23T11:10:17.075Z,99.90
2019-05-23T11:12:44.321Z,99.90
2019-05-23T11:15:12.104Z,99.90
2019-05-23T11:17:39.786Z,99.90
2019-05-23T11:20:09.669Z,99.90
2019-05-23T11:22:36.975Z,99.90
2019-05-23T11:25:06.124Z,99.90
2019-05-23T11:27:33.484Z,99.90
2019-05-23T11:30:01.223Z,99.90
2019-05-23T11:32:30.077Z,99.90
2019-05-23T11:34:57.323Z,99.90
2019-05-23T11:37:24.707Z,99.90
2019-05-23T11:39:52.058Z,99.90
2019-05-23T11:42:19.515Z,99.90
2019-05-23T11:44:46.887Z,99.90
2019-05-23T11:47:15.032Z,99.90
2019-05-23T11:49:43.299Z,99.90
2019-05-23T11:52:11.805Z,99.90
2019-05-23T11:54:39.336Z,99.90
2019-05-23T11:57:08.134Z,99.90
2019-05-23T11:59:35.575Z,99.90
2019-05-23T12:02:22.560Z,99.70
2019-05-23T12:04:50.290Z,98.90
2019-05-23T12:07:37.258Z,96.10
2019-05-23T12:10:06.883Z,96.20
2019-05-23T12:12:34.368Z,95.20
2019-05-23T12:15:01.797Z,95.30
2019-05-23T12:17:29.672Z,95.30
2019-05-23T12:19:57.085Z,95.50
2019-05-23T12:22:24.908Z,95.70
2019-05-23T12:24:52.356Z,96.00
2019-05-23T12:27:19.805Z,96.10
2019-05-23T12:29:47.716Z,96.10
2019-05-23T12:32:15.580Z,95.40
2019-05-23T12:34:42.996Z,95.40
2019-05-23T12:37:20.000Z,95.30
2019-05-23T12:39:39.726Z,95.20
2019-05-23T12:42:07.150Z,93.70
2019-05-23T12:44:34.604Z,93.70
2019-05-23T12:47:03.894Z,93.60
2019-05-23T12:49:39.089Z,93.40
2019-05-23T12:52:09.067Z,92.40
2019-05-23T12:54:36.568Z,92.30
2019-05-23T12:57:05.218Z,92.30
2019-05-23T12:59:32.669Z,92.30
2019-05-23T13:02:01.159Z,92.30
2019-05-23T13:04:28.565Z,92.60
2019-05-23T13:06:55.915Z,92.60
2019-05-23T13:09:23.215Z,92.50
2019-05-23T13:11:50.794Z,92.30
2019-05-23T13:14:19.068Z,92.20
2019-05-23T13:16:46.410Z,92.10
2019-05-23T13:19:14.683Z,92.10
2019-05-23T13:21:42.131Z,92.10
2019-05-23T13:24:09.495Z,92.00
2019-05-23T13:26:36.892Z,91.90
2019-05-23T13:29:04.129Z,91.80
2019-05-23T13:31:31.360Z,91.80
2019-05-23T13:33:58.598Z,92.90
2019-05-23T13:36:25.813Z,92.70
2019-05-23T13:38:53.175Z,92.50
2019-05-23T13:41:20.449Z,92.40
2019-05-23T13:43:47.715Z,92.30
2019-05-23T13:46:16.123Z,92.10
2019-05-23T13:48:43.355Z,92.50
2019-05-23T13:51:13.039Z,92.40
2019-05-23T13:53:40.568Z,91.80
2019-05-23T13:56:07.800Z,91.80
2019-05-23T13:58:35.107Z,91.70
2019-05-23T14:01:03.597Z,91.60
2019-05-23T14:03:32.221Z,91.60
2019-05-23T14:05:59.643Z,91.50
2019-05-23T14:08:26.964Z,91.50
2019-05-23T14:10:54.449Z,91.50
2019-05-23T14:13:22.217Z,91.70
2019-05-23T14:15:52.066Z,91.90
2019-05-23T14:18:21.040Z,92.20
2019-05-23T14:20:48.652Z,92.40
2019-05-23T14:23:22.360Z,92.60
2019-05-23T14:25:49.924Z,92.60
2019-05-23T14:28:17.244Z,92.60
2019-05-23T14:31:10.052Z,92.70
2019-05-23T14:33:43.531Z,92.60
2019-05-23T14:36:16.719Z,92.50
2019-05-23T14:38:43.986Z,92.70
2019-05-23T14:41:11.438Z,92.70
2019-05-23T14:43:38.942Z,92.70
2019-05-23T14:46:08.847Z,92.60
2019-05-23T14:48:56.014Z,92.50
2019-05-23T14:51:42.853Z,92.20
2019-05-23T14:54:16.821Z,91.90
2019-05-23T14:56:44.498Z,91.50
2019-05-23T14:59:11.832Z,91.30
2019-05-23T15:01:39.389Z,91.20
2019-05-23T15:04:06.702Z,91.20
2019-05-23T15:06:34.081Z,92.30
2019-05-23T15:09:01.404Z,92.40
2019-05-23T15:11:28.653Z,92.50
2019-05-23T15:13:56.162Z,92.80
2019-05-23T15:16:23.465Z,93.10
2019-05-23T15:18:50.778Z,93.50
2019-05-23T15:21:18.112Z,93.90
2019-05-23T15:23:45.326Z,94.40
2019-05-23T15:26:22.493Z,95.20
2019-05-23T15:28:41.914Z,95.30
2019-05-23T15:31:10.055Z,95.40
2019-05-23T15:33:37.322Z,95.60
2019-05-23T15:36:05.035Z,95.80
2019-05-23T15:38:32.292Z,96.00
2019-05-23T15:40:59.553Z,96.20
2019-05-23T15:43:26.940Z,96.40
2019-05-23T15:45:54.215Z,96.90
2019-05-23T15:48:21.594Z,97.50
2019-05-23T15:50:50.563Z,97.50
2019-05-23T15:53:34.745Z,97.50
2019-05-23T15:56:28.569Z,97.60
2019-05-23T15:59:07.802Z,97.80
2019-05-23T16:02:03.636Z,97.90
2019-05-23T16:04:31.720Z,97.90
2019-05-23T16:06:59.591Z,98.00
2019-05-23T16:09:30.142Z,98.00
2019-05-23T16:11:56.388Z,98.00
2019-05-23T16:14:24.748Z,98.20
2019-05-23T16:16:56.154Z,98.30
2019-05-23T16:19:21.811Z,98.40
2019-05-23T16:21:49.060Z,98.40
2019-05-23T16:24:16.400Z,98.40
2019-05-23T16:26:43.911Z,98.40
2019-05-23T16:29:13.379Z,98.40
2019-05-23T16:31:41.203Z,98.40
2019-05-23T16:34:08.461Z,98.40
2019-05-23T16:36:35.780Z,98.40
2019-05-23T16:39:05.670Z,98.30
2019-05-23T16:41:33.013Z,98.20
2019-05-23T16:44:00.338Z,98.20
2019-05-23T16:46:27.785Z,98.00
2019-05-23T16:48:55.232Z,98.00
2019-05-23T16:51:22.468Z,98.00
2019-05-23T16:53:50.858Z,98.40
2019-05-23T16:56:29.653Z,98.60
2019-05-23T16:59:17.358Z,98.70
2019-05-23T17:02:06.530Z,98.80
2019-05-23T17:04:39.625Z,98.90
2019-05-23T17:07:29.795Z,99.00
2019-05-23T17:10:09.190Z,99.00
2019-05-23T17:12:45.137Z,99.00
2019-05-23T17:15:38.267Z,99.10
2019-05-23T17:18:22.196Z,99.00
2019-05-23T17:21:01.265Z,99.00
2019-05-23T17:23:53.672Z,99.00
2019-05-23T17:26:52.443Z,99.20
2019-05-23T17:29:29.993Z,99.20
2019-05-23T17:31:57.369Z,99.20
2019-05-23T17:34:24.612Z,99.00
2019-05-23T17:36:51.987Z,99.20
2019-05-23T17:39:19.760Z,99.30
2019-05-23T17:41:47.012Z,99.30
2019-05-23T17:44:14.421Z,99.50
2019-05-23T17:46:41.771Z,99.60
2019-05-23T17:49:09.011Z,99.70
2019-05-23T17:51:36.235Z,99.80
2019-05-23T17:54:03.688Z,99.80
2019-05-23T17:56:31.056Z,99.90
2019-05-23T17:58:58.367Z,99.90
2019-05-23T18:01:25.860Z,99.90
2019-05-23T18:03:53.132Z,99.90
2019-05-23T18:06:20.675Z,99.90
2019-05-23T18:08:48.905Z,99.90
2019-05-23T18:11:16.355Z,99.90
2019-05-23T18:13:44.098Z,99.90
2019-05-23T18:16:12.896Z,99.90
2019-05-23T18:18:40.171Z,99.90
2019-05-23T18:21:07.848Z,99.90
2019-05-23T18:23:35.080Z,99.90
2019-05-23T18:26:03.040Z,99.90
2019-05-23T18:28:30.714Z,99.90
2019-05-23T18:31:08.093Z,99.90
2019-05-23T18:33:34.249Z,99.90
2019-05-23T18:36:03.243Z,99.90
2019-05-23T18:38:31.428Z,99.90
2019-05-23T18:41:05.820Z,99.90
2019-05-23T18:43:28.449Z,99.90
2019-05-23T18:45:59.891Z,99.90
2019-05-23T18:48:27.348Z,99.90
2019-05-23T18:50:55.746Z,99.90
2019-05-23T18:53:23.074Z,99.90
2019-05-23T18:55:50.408Z,99.90
2019-05-23T18:58:19.578Z,99.90
2019-05-23T19:01:21.115Z,99.90
2019-05-23T19:03:48.751Z,99.90
2019-05-23T19:06:16.088Z,99.90
2019-05-23T19:08:43.423Z,99.90
2019-05-23T19:11:20.351Z,99.90
2019-05-23T19:13:39.940Z,99.90
2019-05-23T19:16:07.318Z,99.90
2019-05-23T19:18:36.261Z,99.90
2019-05-23T19:21:03.481Z,99.90
2019-05-23T19:23:31.788Z,99.90
2019-05-23T19:25:59.247Z,99.90
2019-05-23T19:28:26.611Z,99.90
2019-05-23T19:30:54.387Z,99.90
2019-05-23T19:33:22.232Z,99.90
2019-05-23T19:35:49.643Z,99.90
2019-05-23T19:38:18.302Z,99.90
2019-05-23T19:40:46.524Z,99.90
2019-05-23T19:43:15.864Z,99.90
2019-05-23T19:45:44.603Z,99.90
2019-05-23T19:48:12.063Z,99.90
2019-05-23T19:50:44.721Z,99.90
2019-05-23T19:53:12.632Z,99.90
2019-05-23T19:55:40.463Z,99.90
2019-05-23T19:58:10.126Z,99.90
2019-05-23T20:00:38.292Z,99.90
2019-05-23T20:03:06.257Z,99.90
2019-05-23T20:05:37.219Z,99.90
2019-05-23T20:08:04.711Z,99.90
2019-05-23T20:10:32.674Z,99.90
2019-05-23T20:12:59.931Z,99.90
2019-05-23T20:15:27.618Z,99.90
2019-05-23T20:17:55.060Z,99.90
2019-05-23T20:20:23.021Z,99.90
2019-05-23T20:22:50.481Z,99.90
2019-05-23T20:25:18.832Z,99.90
2019-05-23T20:27:46.214Z,99.90
2019-05-23T20:30:44.083Z,99.90
2019-05-23T20:33:12.465Z,99.90
2019-05-23T20:35:39.777Z,99.90
2019-05-23T20:38:07.130Z,99.90
2019-05-23T20:40:34.722Z,99.90
2019-05-23T20:43:02.721Z,99.90
2019-05-23T20:45:30.343Z,99.90
2019-05-23T20:48:00.496Z,99.90
2019-05-23T20:50:27.976Z,99.90
2019-05-23T20:52:56.760Z,99.90
2019-05-23T20:55:27.698Z,99.90
2019-05-23T20:57:57.884Z,99.90
2019-05-23T21:00:38.449Z,99.90
2019-05-23T21:03:05.993Z,99.90
2019-05-23T21:05:33.673Z,99.90
2019-05-23T21:08:01.150Z,99.90
2019-05-23T21:10:45.313Z,99.90
2019-05-23T21:13:12.924Z,99.90
2019-05-23T21:15:40.993Z,99.90
2019-05-23T21:18:08.774Z,99.90
2019-05-23T21:20:36.321Z,99.90
2019-05-23T21:23:03.817Z,99.90
2019-05-23T21:25:32.311Z,99.90
2019-05-23T21:27:59.981Z,99.90
2019-05-23T21:30:27.754Z,99.90
2019-05-23T21:32:55.524Z,99.90
2019-05-23T21:35:23.071Z,99.90
2019-05-23T21:37:50.503Z,99.90
2019-05-23T21:40:33.611Z,99.90
2019-05-23T21:43:00.922Z,99.90
2019-05-23T21:45:28.292Z,99.90
2019-05-23T21:47:56.129Z,99.90
2019-05-23T21:50:42.864Z,99.90
2019-05-23T21:53:10.467Z,99.90
2019-05-23T21:55:39.307Z,99.90
2019-05-23T21:58:10.609Z,99.90
2019-05-23T22:01:20.416Z,99.90
2019-05-23T22:03:52.407Z,99.90
2019-05-23T22:06:21.763Z,99.90
2019-05-23T22:08:49.745Z,99.90
2019-05-23T22:11:17.083Z,99.90
2019-05-23T22:13:44.381Z,99.90
2019-05-23T22:16:11.907Z,99.90
2019-05-23T22:18:39.400Z,99.90
2019-05-23T22:21:06.746Z,99.90
2019-05-23T22:23:34.891Z,99.90
2019-05-23T22:26:02.396Z,99.90
2019-05-23T22:28:29.817Z,99.90
2019-05-23T22:30:57.204Z,99.90
2019-05-23T22:33:26.324Z,99.90
2019-05-23T22:35:53.663Z,99.90
2019-05-23T22:38:21.024Z,99.90
2019-05-23T22:40:48.260Z,99.90
2019-05-23T22:43:20.986Z,99.90
2019-05-23T22:45:44.907Z,99.90
2019-05-23T22:48:12.139Z,99.90
2019-05-23T22:50:39.367Z,99.90
2019-05-23T22:53:06.696Z,99.90
2019-05-23T22:55:33.971Z,99.90
2019-05-23T22:58:01.511Z,99.90
2019-05-23T23:00:32.845Z,99.90
2019-05-23T23:03:00.112Z,99.90
2019-05-23T23:05:27.382Z,99.90
2019-05-23T23:07:55.193Z,99.90
2019-05-23T23:10:22.415Z,99.90
2019-05-23T23:12:49.653Z,99.90
2019-05-23T23:15:16.911Z,99.90
2019-05-23T23:17:44.243Z,99.90
2019-05-23T23:20:11.729Z,99.90
2019-05-23T23:22:39.069Z,99.90
2019-05-23T23:25:06.495Z,99.90
2019-05-23T23:27:33.717Z,99.90
2019-05-23T23:30:00.976Z,99.90
2019-05-23T23:32:28.193Z,99.90
2019-05-23T23:34:55.469Z,99.90
2019-05-23T23:37:22.891Z,99.90
2019-05-23T23:39:50.152Z,99.90
2019-05-23T23:42:17.380Z,99.90
2019-05-23T23:44:44.173Z,99.90
2019-05-23T23:47:29.471Z,99.90
2019-05-23T23:50:14.612Z,99.90
2019-05-23T23:53:00.534Z,99.90
2019-05-23T23:55:45.652Z,99.90
2019-05-23T23:58:12.418Z,99.90
